Time;durP1;ratioP1;P1;durP2;ratioP2;P2;SDS_P1;SDS_P2;PMS_P1;PMS_P2;Temp;Humidity;BMP_temperature;BMP_pressure;BME280_temperature;BME280_humidity;BME280_pressure;Samples;Min_cycle;Max_cycle;Signal;HPM_P1;HPM_P2
2021/12/31 00:01:33;;;;;;;3.58;1.20;;;16.70;97.70;;;;;;909466;155;27305;-84
2021/12/31 00:04:00;;;;;;;3.15;1.57;;;16.70;97.70;;;;;;922872;154;27928;-80
2021/12/31 00:06:26;;;;;;;2.75;1.77;;;16.70;97.60;;;;;;915501;152;27369;-84
2021/12/31 00:08:53;;;;;;;1.85;1.42;;;16.70;97.50;;;;;;909927;156;27346;-84
2021/12/31 00:11:26;;;;;;;1.35;1.25;;;16.70;97.50;;;;;;924910;151;27401;-85
2021/12/31 00:13:52;;;;;;;1.40;1.20;;;16.70;97.40;;;;;;916077;153;27365;-81
2021/12/31 00:16:19;;;;;;;2.83;1.30;;;16.70;97.40;;;;;;920715;154;27385;-85
2021/12/31 00:18:45;;;;;;;2.77;1.30;;;16.70;97.30;;;;;;926463;150;27297;-86
2021/12/31 00:21:12;;;;;;;2.35;1.32;;;16.70;97.30;;;;;;935573;150;27190;-85
2021/12/31 00:23:41;;;;;;;1.87;1.35;;;16.70;97.30;;;;;;935088;150;27347;-84
2021/12/31 00:26:05;;;;;;;2.90;2.00;;;16.70;97.30;;;;;;933973;150;27295;-85
2021/12/31 00:28:32;;;;;;;3.45;1.52;;;16.70;97.20;;;;;;939563;150;27739;-84
2021/12/31 00:30:59;;;;;;;1.67;1.52;;;16.70;97.30;;;;;;938358;150;27202;-81
2021/12/31 00:33:25;;;;;;;2.55;1.80;;;16.70;97.20;;;;;;949055;150;28119;-81
2021/12/31 00:35:51;;;;;;;2.22;1.55;;;16.70;97.20;;;;;;936375;150;27212;-81
2021/12/31 00:38:18;;;;;;;2.98;1.70;;;16.70;97.10;;;;;;942723;150;27752;-80
2021/12/31 00:40:45;;;;;;;3.25;1.50;;;16.70;97.10;;;;;;943489;150;27178;-80
2021/12/31 00:43:11;;;;;;;1.65;1.30;;;16.70;97.10;;;;;;933822;150;27280;-79
2021/12/31 00:45:40;;;;;;;2.58;1.42;;;16.70;97.20;;;;;;925160;153;27313;-78
2021/12/31 00:48:04;;;;;;;1.12;1.02;;;16.70;97.20;;;;;;936766;150;27379;-79
2021/12/31 00:50:31;;;;;;;1.90;1.30;;;16.70;97.20;;;;;;936208;150;27228;-78
2021/12/31 00:52:58;;;;;;;4.42;1.80;;;16.70;97.20;;;;;;935647;150;27281;-78
2021/12/31 00:55:24;;;;;;;2.33;1.52;;;16.70;97.20;;;;;;935538;150;27217;-81
2021/12/31 00:57:51;;;;;;;2.30;1.60;;;16.70;97.30;;;;;;937033;150;27190;-80
2021/12/31 01:00:17;;;;;;;3.08;1.47;;;16.70;97.30;;;;;;934989;150;27744;-80
2021/12/31 01:02:46;;;;;;;1.82;1.27;;;16.70;97.30;;;;;;936274;150;27352;-80
2021/12/31 01:05:11;;;;;;;2.20;1.60;;;16.70;97.20;;;;;;939304;150;27436;-80
2021/12/31 01:07:37;;;;;;;3.85;1.52;;;16.70;97.30;;;;;;937626;150;27301;-80
2021/12/31 01:10:04;;;;;;;2.60;1.45;;;16.70;97.20;;;;;;937094;150;28025;-80
2021/12/31 01:12:30;;;;;;;1.50;1.32;;;16.70;97.20;;;;;;931142;150;27399;-80
2021/12/31 01:15:11;;;;;;;2.20;1.50;;;16.70;97.20;;;;;;937947;150;27339;-80
2021/12/31 01:17:45;;;;;;;3.12;1.62;;;16.70;97.10;;;;;;926212;150;27216;-80
2021/12/31 01:19:53;;;;;;;3.52;1.60;;;16.70;97.10;;;;;;942402;150;27849;-79
2021/12/31 01:22:20;;;;;;;2.37;1.70;;;16.70;97.10;;;;;;931628;149;27287;-79
2021/12/31 01:24:46;;;;;;;2.42;1.75;;;16.70;97.00;;;;;;945947;148;27311;-80
2021/12/31 01:27:12;;;;;;;1.72;1.60;;;16.70;97.00;;;;;;915489;154;27334;-80
2021/12/31 01:29:39;;;;;;;2.55;1.75;;;16.70;97.00;;;;;;919121;154;27402;-80
2021/12/31 01:32:06;;;;;;;2.17;1.55;;;16.70;97.00;;;;;;935361;151;27284;-80
2021/12/31 01:34:32;;;;;;;2.35;1.70;;;16.70;97.00;;;;;;933773;151;27294;-80
2021/12/31 01:36:59;;;;;;;3.02;1.82;;;16.70;96.90;;;;;;934492;150;27331;-80
2021/12/31 01:39:26;;;;;;;1.90;1.52;;;16.70;96.90;;;;;;933511;151;27319;-80
2021/12/31 01:41:52;;;;;;;2.00;1.50;;;16.70;96.80;;;;;;934086;151;27389;-80
2021/12/31 01:44:20;;;;;;;3.10;1.57;;;16.70;96.80;;;;;;932127;151;27333;-80
2021/12/31 01:46:54;;;;;;;1.75;1.57;;;16.70;96.70;;;;;;932707;153;27307;-81
2021/12/31 01:49:22;;;;;;;2.52;1.77;;;16.70;96.70;;;;;;939137;151;27343;-80
2021/12/31 01:51:47;;;;;;;3.20;1.52;;;16.70;96.70;;;;;;937048;151;27304;-80
2021/12/31 01:54:14;;;;;;;3.67;1.98;;;16.70;96.70;;;;;;935411;151;27396;-80
2021/12/31 01:56:41;;;;;;;1.50;1.40;;;16.70;96.70;;;;;;935137;151;27273;-81
2021/12/31 01:59:07;;;;;;;5.10;1.45;;;16.70;96.70;;;;;;934308;151;27345;-80
2021/12/31 02:01:34;;;;;;;2.58;1.82;;;16.70;96.70;;;;;;933776;151;27331;-80
2021/12/31 02:04:00;;;;;;;3.87;1.92;;;16.70;96.70;;;;;;932250;151;27299;-81
2021/12/31 02:06:27;;;;;;;2.27;1.57;;;16.70;96.70;;;;;;934518;151;27439;-81
2021/12/31 02:08:53;;;;;;;4.45;1.70;;;16.70;96.70;;;;;;931822;151;28447;-80
2021/12/31 02:11:20;;;;;;;3.25;2.08;;;16.70;96.70;;;;;;934611;151;27295;-79
2021/12/31 02:13:47;;;;;;;3.92;2.05;;;16.70;96.60;;;;;;934040;151;28023;-79
2021/12/31 02:16:13;;;;;;;3.45;2.00;;;16.70;96.60;;;;;;940177;151;27429;-80
2021/12/31 02:18:43;;;;;;;2.45;1.77;;;16.70;96.60;;;;;;944625;151;27358;-79
2021/12/31 02:21:10;;;;;;;4.65;2.12;;;16.70;96.60;;;;;;930124;151;27453;-79
2021/12/31 02:23:42;;;;;;;4.10;1.75;;;16.70;96.60;;;;;;928837;151;27302;-80
2021/12/31 02:26:00;;;;;;;3.50;2.00;;;16.70;96.50;;;;;;930552;153;27411;-83
2021/12/31 02:28:27;;;;;;;2.10;1.90;;;16.70;96.50;;;;;;924807;154;27410;-77
2021/12/31 02:30:54;;;;;;;4.17;1.77;;;16.70;96.50;;;;;;928187;151;27305;-81
2021/12/31 02:33:19;;;;;;;2.15;1.90;;;16.70;96.50;;;;;;933125;151;27278;-81
2021/12/31 02:35:46;;;;;;;4.50;2.27;;;16.70;96.50;;;;;;931780;154;27243;-80
2021/12/31 02:38:13;;;;;;;3.77;2.30;;;16.70;96.50;;;;;;931027;153;27295;-81
2021/12/31 02:40:39;;;;;;;3.33;1.57;;;16.70;96.50;;;;;;928714;151;27285;-79
2021/12/31 02:43:06;;;;;;;3.47;2.10;;;16.70;96.50;;;;;;925504;152;27424;-82
2021/12/31 02:45:36;;;;;;;2.77;2.10;;;16.70;96.50;;;;;;917917;154;27882;-82
2021/12/31 02:48:02;;;;;;;4.20;1.85;;;16.60;96.40;;;;;;919437;155;27373;-80
2021/12/31 02:50:33;;;;;;;3.65;2.10;;;16.70;96.40;;;;;;921799;155;27835;-81
2021/12/31 02:52:52;;;;;;;3.02;2.00;;;16.70;96.40;;;;;;918051;152;27315;-81
2021/12/31 02:55:19;;;;;;;2.80;1.72;;;16.70;96.40;;;;;;923220;154;27342;-78
2021/12/31 02:57:46;;;;;;;4.05;1.67;;;16.60;96.40;;;;;;915082;155;27370;-81
2021/12/31 03:00:12;;;;;;;2.37;1.62;;;16.70;96.40;;;;;;926761;154;27265;-80
2021/12/31 03:02:39;;;;;;;3.37;1.87;;;16.70;96.40;;;;;;932684;151;27225;-81
2021/12/31 03:05:06;;;;;;;1.92;1.72;;;16.70;96.40;;;;;;924860;154;27303;-78
2021/12/31 03:07:32;;;;;;;3.20;1.72;;;16.70;96.30;;;;;;901941;157;27456;-81
2021/12/31 03:09:58;;;;;;;2.67;1.70;;;16.70;96.30;;;;;;929324;153;27289;-85
2021/12/31 03:12:25;;;;;;;2.65;1.70;;;16.70;96.20;;;;;;927997;151;27346;-82
2021/12/31 03:14:53;;;;;;;2.05;1.70;;;16.70;96.20;;;;;;931135;152;27334;-80
2021/12/31 03:17:18;;;;;;;3.70;2.72;;;16.70;96.00;;;;;;926512;153;27705;-81
2021/12/31 03:19:45;;;;;;;2.67;1.85;;;16.70;96.00;;;;;;914341;156;27374;-81
2021/12/31 03:22:11;;;;;;;1.77;1.57;;;16.70;96.00;;;;;;916605;153;27832;-80
2021/12/31 03:24:38;;;;;;;1.77;1.50;;;16.70;95.90;;;;;;923146;153;27345;-80
2021/12/31 03:27:04;;;;;;;2.50;1.65;;;16.70;95.80;;;;;;924624;152;27900;-81
2021/12/31 03:29:31;;;;;;;2.52;1.65;;;16.70;95.80;;;;;;916853;156;27394;-81
2021/12/31 03:31:58;;;;;;;1.70;1.60;;;16.70;95.80;;;;;;912779;156;27844;-81
2021/12/31 03:34:24;;;;;;;3.05;1.60;;;16.70;95.80;;;;;;929543;153;27420;-81
2021/12/31 03:36:51;;;;;;;1.98;1.60;;;16.70;95.80;;;;;;924762;152;27398;-80
2021/12/31 03:39:17;;;;;;;1.87;1.60;;;16.70;95.80;;;;;;910681;155;27362;-76
2021/12/31 03:41:47;;;;;;;1.90;1.80;;;16.70;95.70;;;;;;924620;153;27454;-76
2021/12/31 03:44:13;;;;;;;2.72;2.05;;;16.70;95.70;;;;;;914190;156;27413;-76
2021/12/31 03:46:40;;;;;;;3.60;1.77;;;16.70;95.60;;;;;;928413;153;27380;-76
2021/12/31 03:49:06;;;;;;;1.87;1.55;;;16.70;95.60;;;;;;927843;153;27408;-76
2021/12/31 03:51:33;;;;;;;4.25;2.17;;;16.70;95.60;;;;;;930382;152;27308;-76
2021/12/31 03:54:00;;;;;;;2.17;1.60;;;16.70;95.60;;;;;;925226;152;27929;-75
2021/12/31 03:56:30;;;;;;;2.98;1.82;;;16.70;95.60;;;;;;930345;152;27308;-73
2021/12/31 03:58:55;;;;;;;2.10;1.80;;;16.70;95.60;;;;;;926283;152;27299;-75
2021/12/31 04:01:22;;;;;;;2.52;1.87;;;16.70;95.50;;;;;;923545;152;27362;-72
2021/12/31 04:03:49;;;;;;;2.25;2.05;;;16.60;95.40;;;;;;921988;152;27297;-72
2021/12/31 04:06:15;;;;;;;2.45;2.02;;;16.60;95.40;;;;;;925446;154;27340;-73
2021/12/31 04:08:42;;;;;;;4.05;2.10;;;16.60;95.40;;;;;;924051;153;27319;-72
2021/12/31 04:11:11;;;;;;;2.42;2.08;;;16.60;95.40;;;;;;913655;154;27464;-72
2021/12/31 04:13:35;;;;;;;1.70;1.60;;;16.60;95.40;;;;;;907599;156;27326;-72
2021/12/31 04:16:02;;;;;;;2.83;1.90;;;16.60;95.50;;;;;;929764;152;27387;-73
2021/12/31 04:18:28;;;;;;;2.02;1.82;;;16.60;95.50;;;;;;908856;153;27338;-74
2021/12/31 04:20:57;;;;;;;2.42;1.72;;;16.60;95.40;;;;;;924534;153;27413;-72
2021/12/31 04:23:47;;;;;;;1.85;1.70;;;16.60;95.40;;;;;;922611;153;27367;-72
2021/12/31 04:26:00;;;;;;;2.00;1.72;;;16.60;95.30;;;;;;925141;153;27372;-73
2021/12/31 04:28:29;;;;;;;1.47;1.37;;;16.60;95.30;;;;;;942388;148;27293;-72
2021/12/31 04:30:56;;;;;;;3.58;1.90;;;16.60;95.30;;;;;;948283;151;27297;-74
2021/12/31 04:33:25;;;;;;;2.00;1.80;;;16.50;95.30;;;;;;957907;148;27276;-74
2021/12/31 04:35:52;;;;;;;3.25;1.62;;;16.50;95.20;;;;;;949153;148;27268;-73
2021/12/31 04:38:18;;;;;;;4.08;1.30;;;16.50;95.10;;;;;;942629;148;27889;-73
2021/12/31 04:40:45;;;;;;;1.72;1.52;;;16.50;95.10;;;;;;940281;151;27300;-74
2021/12/31 04:43:12;;;;;;;2.72;1.55;;;16.50;95.00;;;;;;950199;148;27796;-73
2021/12/31 04:45:38;;;;;;;1.75;1.55;;;16.50;95.00;;;;;;957564;148;27422;-73
2021/12/31 04:48:05;;;;;;;3.20;1.67;;;16.50;95.00;;;;;;942810;148;27316;-73
2021/12/31 04:50:31;;;;;;;1.92;1.70;;;16.50;94.80;;;;;;942598;148;27322;-73
2021/12/31 04:53:04;;;;;;;2.22;1.80;;;16.50;94.60;;;;;;948321;148;27247;-72
2021/12/31 04:55:27;;;;;;;2.83;1.50;;;16.50;94.50;;;;;;950588;148;27344;-72
2021/12/31 04:57:54;;;;;;;3.62;2.17;;;16.50;94.50;;;;;;942793;148;27749;-73
2021/12/31 05:00:20;;;;;;;2.52;1.55;;;16.40;94.30;;;;;;947392;148;27365;-72
2021/12/31 05:02:47;;;;;;;2.42;1.50;;;16.40;94.20;;;;;;944334;148;27743;-71
2021/12/31 05:05:14;;;;;;;2.00;1.60;;;16.30;94.00;;;;;;958348;148;27480;-71
2021/12/31 05:07:40;;;;;;;4.92;1.85;;;16.30;93.90;;;;;;947706;148;27356;-71
2021/12/31 05:10:10;;;;;;;2.30;1.67;;;16.20;93.70;;;;;;954460;148;27297;-71
2021/12/31 05:12:38;;;;;;;2.30;1.77;;;16.10;93.70;;;;;;948750;148;28175;-71
2021/12/31 05:15:06;;;;;;;2.90;1.82;;;16.00;93.60;;;;;;956396;148;27286;-71
2021/12/31 05:17:33;;;;;;;2.00;1.60;;;15.90;93.60;;;;;;938254;148;27410;-71
2021/12/31 05:20:02;;;;;;;1.35;1.25;;;15.90;93.70;;;;;;947930;148;27253;-71
2021/12/31 05:22:28;;;;;;;1.60;1.50;;;15.70;93.80;;;;;;945593;148;27415;-71
2021/12/31 05:24:55;;;;;;;1.97;1.73;;;15.60;93.90;;;;;;946214;148;27732;-71
2021/12/31 05:27:22;;;;;;;1.70;1.60;;;15.60;94.00;;;;;;927074;153;27279;-72
2021/12/31 05:29:48;;;;;;;4.00;1.72;;;15.50;94.10;;;;;;935932;150;27705;-72
2021/12/31 05:32:15;;;;;;;1.73;1.60;;;15.40;94.10;;;;;;943324;150;27282;-73
2021/12/31 05:34:41;;;;;;;1.93;1.63;;;15.30;94.20;;;;;;948308;150;27783;-72
2021/12/31 05:37:08;;;;;;;2.95;1.75;;;15.20;94.40;;;;;;941126;150;27380;-73
2021/12/31 05:39:35;;;;;;;2.33;1.90;;;15.10;94.40;;;;;;935123;150;27318;-72
2021/12/31 05:42:01;;;;;;;2.40;2.20;;;15.00;94.60;;;;;;933703;153;27420;-71
2021/12/31 05:44:28;;;;;;;2.10;1.80;;;14.90;94.70;;;;;;936455;150;27270;-72
2021/12/31 05:46:55;;;;;;;2.73;2.10;;;14.80;94.90;;;;;;936937;150;27248;-72
2021/12/31 05:49:21;;;;;;;2.00;1.87;;;14.70;95.00;;;;;;935205;151;27310;-72
2021/12/31 05:51:53;;;;;;;2.63;2.20;;;14.70;95.20;;;;;;929554;153;27784;-75
2021/12/31 05:54:20;;;;;;;3.00;1.93;;;14.60;95.30;;;;;;935997;150;27288;-72
2021/12/31 05:56:46;;;;;;;1.97;1.87;;;14.60;95.50;;;;;;940137;150;27288;-72
2021/12/31 05:59:13;;;;;;;3.17;1.90;;;14.50;95.70;;;;;;945959;150;27289;-73
2021/12/31 06:01:39;;;;;;;2.17;1.80;;;14.50;96.00;;;;;;931070;150;27381;-74
2021/12/31 06:04:06;;;;;;;2.03;1.83;;;14.40;96.30;;;;;;936527;150;27271;-72
2021/12/31 06:06:33;;;;;;;2.33;2.00;;;14.40;96.60;;;;;;928504;153;27335;-73
2021/12/31 06:08:59;;;;;;;2.43;1.73;;;14.40;96.80;;;;;;938680;150;27314;-73
2021/12/31 06:11:26;;;;;;;2.00;1.80;;;14.40;97.00;;;;;;942572;150;27433;-73
2021/12/31 06:14:01;;;;;;;3.03;2.03;;;14.40;97.20;;;;;;926129;153;27320;-73
2021/12/31 06:16:19;;;;;;;2.70;2.00;;;14.50;97.30;;;;;;943538;150;27725;-72
2021/12/31 06:18:46;;;;;;;4.67;2.20;;;14.50;97.30;;;;;;944401;150;27238;-72
2021/12/31 06:21:12;;;;;;;2.55;1.90;;;14.50;97.40;;;;;;942686;150;27292;-71
2021/12/31 06:23:39;;;;;;;1.90;1.63;;;14.60;97.40;;;;;;921892;153;27428;-71
2021/12/31 06:26:05;;;;;;;2.70;1.50;;;14.60;97.30;;;;;;935576;150;27292;-73
2021/12/31 06:28:35;;;;;;;1.70;1.53;;;14.60;97.10;;;;;;936539;150;27313;-71
2021/12/31 06:31:01;;;;;;;1.90;1.80;;;14.60;96.90;;;;;;936575;150;27726;-72
2021/12/31 06:33:28;;;;;;;3.37;1.70;;;14.60;96.70;;;;;;947561;150;27288;-72
2021/12/31 06:35:55;;;;;;;1.83;1.73;;;14.60;96.50;;;;;;934931;150;27295;-73
2021/12/31 06:38:21;;;;;;;2.53;1.87;;;14.50;96.40;;;;;;926696;153;27220;-72
2021/12/31 06:40:48;;;;;;;1.70;1.60;;;14.50;96.30;;;;;;935890;150;27276;-73
2021/12/31 06:43:14;;;;;;;1.70;1.60;;;14.50;96.60;;;;;;935973;150;27307;-71
2021/12/31 06:45:41;;;;;;;1.87;1.70;;;14.40;96.20;;;;;;942316;150;27283;-71
2021/12/31 06:48:08;;;;;;;1.90;1.70;;;14.30;96.10;;;;;;931929;150;27389;-71
2021/12/31 06:50:34;;;;;;;4.63;1.97;;;14.20;96.10;;;;;;943495;150;27272;-71
2021/12/31 06:53:02;;;;;;;1.77;1.67;;;14.20;96.50;;;;;;932119;150;27332;-71
2021/12/31 06:55:27;;;;;;;1.63;1.53;;;14.10;96.10;;;;;;912109;153;27476;-72
2021/12/31 06:57:54;;;;;;;2.40;1.87;;;14.00;96.10;;;;;;930468;153;27341;-71
2021/12/31 07:00:20;;;;;;;2.93;2.00;;;13.90;96.20;;;;;;946089;148;28077;-74
2021/12/31 07:02:47;;;;;;;2.97;2.13;;;13.90;96.30;;;;;;939466;149;27378;-72
2021/12/31 07:05:14;;;;;;;2.33;1.87;;;13.70;96.40;;;;;;949537;149;27282;-74
2021/12/31 07:07:40;;;;;;;2.40;2.20;;;13.70;96.50;;;;;;950416;149;27234;-71
2021/12/31 07:10:07;;;;;;;3.57;2.20;;;13.60;96.70;;;;;;953839;149;27269;-73
2021/12/31 07:12:34;;;;;;;3.50;1.77;;;13.60;96.80;;;;;;943635;149;27317;-72
2021/12/31 07:15:00;;;;;;;1.70;1.60;;;13.50;96.90;;;;;;943451;149;27365;-70
2021/12/31 07:17:29;;;;;;;4.03;2.00;;;13.40;97.10;;;;;;940986;149;27282;-71
2021/12/31 07:19:53;;;;;;;2.33;2.07;;;13.30;97.30;;;;;;946575;149;27382;-70
2021/12/31 07:22:21;;;;;;;3.50;2.10;;;13.30;97.50;;;;;;944703;149;27768;-71
2021/12/31 07:24:46;;;;;;;2.57;2.10;;;13.30;97.50;;;;;;931858;149;27364;-71
2021/12/31 07:27:13;;;;;;;2.17;1.97;;;13.20;97.50;;;;;;924769;152;28247;-71
2021/12/31 07:29:40;;;;;;;2.13;1.93;;;13.20;97.60;;;;;;925560;153;27398;-73
2021/12/31 07:32:06;;;;;;;2.50;2.27;;;13.10;97.70;;;;;;931509;154;27855;-71
2021/12/31 07:34:33;;;;;;;2.03;1.60;;;13.10;97.70;;;;;;935453;151;27291;-72
2021/12/31 07:36:59;;;;;;;5.77;2.00;;;13.00;97.80;;;;;;929605;151;27284;-73
2021/12/31 07:39:31;;;;;;;1.90;1.60;;;13.00;98.00;;;;;;925519;149;27326;-71
2021/12/31 07:41:53;;;;;;;2.70;1.80;;;13.00;98.20;;;;;;923665;151;27291;-72
2021/12/31 07:44:19;;;;;;;2.17;1.97;;;13.00;98.60;;;;;;934291;151;27410;-71
2021/12/31 07:46:46;;;;;;;1.77;1.67;;;13.00;98.90;;;;;;932378;151;27340;-71
2021/12/31 07:49:12;;;;;;;3.20;1.87;;;13.00;99.10;;;;;;931916;151;27962;-71
2021/12/31 07:51:39;;;;;;;2.80;2.10;;;13.10;99.20;;;;;;932587;151;27311;-71
2021/12/31 07:54:06;;;;;;;2.80;1.80;;;13.10;99.20;;;;;;932755;153;27821;-70
2021/12/31 07:56:32;;;;;;;2.17;1.90;;;13.10;99.50;;;;;;931831;151;27298;-72
2021/12/31 07:58:59;;;;;;;2.63;2.10;;;13.10;99.10;;;;;;931896;154;27295;-71
2021/12/31 08:01:28;;;;;;;2.23;1.90;;;13.10;99.10;;;;;;933625;151;27336;-72
2021/12/31 08:03:57;;;;;;;2.03;1.83;;;13.10;99.10;;;;;;926458;154;27306;-72
2021/12/31 08:06:24;;;;;;;2.07;1.70;;;13.20;99.50;;;;;;940545;150;27270;-73
2021/12/31 08:08:50;;;;;;;3.33;2.20;;;13.40;99.90;;;;;;943456;150;27332;-72
2021/12/31 08:11:17;;;;;;;2.83;2.20;;;13.60;99.90;;;;;;934594;152;27347;-73
2021/12/31 08:13:44;;;;;;;1.80;1.70;;;13.80;99.90;;;;;;941337;150;27438;-72
2021/12/31 08:16:10;;;;;;;3.63;2.40;;;14.10;99.90;;;;;;934343;152;27349;-72
2021/12/31 08:18:37;;;;;;;2.25;1.80;;;14.40;99.90;;;;;;946287;150;27332;-76
2021/12/31 08:21:03;;;;;;;2.00;1.70;;;14.70;99.90;;;;;;934089;150;27309;-73
2021/12/31 08:23:30;;;;;;;2.10;1.70;;;14.80;99.40;;;;;;939476;150;27981;-71
2021/12/31 08:25:57;;;;;;;4.22;2.12;;;14.90;98.60;;;;;;944811;149;27301;-72
2021/12/31 08:28:24;;;;;;;3.17;1.60;;;15.00;97.90;;;;;;942873;150;28147;-71
2021/12/31 08:30:50;;;;;;;2.83;1.85;;;15.00;97.40;;;;;;938996;150;27290;-71
2021/12/31 08:33:16;;;;;;;2.45;1.70;;;15.00;97.00;;;;;;936675;150;27295;-71
2021/12/31 08:35:46;;;;;;;1.82;1.72;;;15.00;96.80;;;;;;936061;150;27268;-71
2021/12/31 08:38:12;;;;;;;2.42;1.60;;;15.00;96.60;;;;;;940562;150;27309;-71
2021/12/31 08:40:39;;;;;;;1.80;1.70;;;15.00;96.60;;;;;;941295;150;27368;-71
2021/12/31 08:43:06;;;;;;;1.77;1.60;;;14.90;96.50;;;;;;936902;150;27735;-71
2021/12/31 08:45:32;;;;;;;1.73;1.63;;;14.90;96.60;;;;;;940962;150;27347;-72
2021/12/31 08:48:01;;;;;;;2.30;2.10;;;14.80;96.60;;;;;;941490;150;27354;-71
2021/12/31 08:50:28;;;;;;;2.33;1.63;;;14.80;96.80;;;;;;940303;148;27830;-71
2021/12/31 08:52:54;;;;;;;2.50;1.75;;;14.80;96.90;;;;;;942393;150;27310;-72
2021/12/31 08:55:21;;;;;;;1.90;1.80;;;14.80;97.20;;;;;;937572;150;27906;-71
2021/12/31 08:57:48;;;;;;;2.70;1.73;;;14.80;97.20;;;;;;938079;150;27374;-71
2021/12/31 09:00:14;;;;;;;1.80;1.70;;;14.90;97.20;;;;;;941968;150;27337;-72
2021/12/31 09:02:42;;;;;;;1.90;1.80;;;14.90;97.20;;;;;;940506;150;27374;-72
2021/12/31 09:05:07;;;;;;;1.63;1.53;;;14.90;97.10;;;;;;938700;150;27302;-71
2021/12/31 09:07:34;;;;;;;2.23;1.77;;;14.90;96.90;;;;;;939427;150;27348;-73
2021/12/31 09:10:00;;;;;;;1.67;1.57;;;14.90;96.80;;;;;;941118;150;27268;-73
2021/12/31 09:12:27;;;;;;;1.73;1.60;;;14.90;96.70;;;;;;940123;150;28006;-71
2021/12/31 09:14:54;;;;;;;2.67;1.80;;;14.90;96.70;;;;;;934924;152;27402;-71
2021/12/31 09:17:22;;;;;;;2.00;1.80;;;14.90;96.80;;;;;;939734;152;27842;-71
2021/12/31 09:19:47;;;;;;;2.30;1.70;;;14.90;96.80;;;;;;924046;153;27302;-74
2021/12/31 09:22:13;;;;;;;2.00;1.62;;;14.90;97.20;;;;;;920657;156;27305;-71
2021/12/31 09:24:40;;;;;;;3.45;1.87;;;14.90;96.80;;;;;;918105;151;27371;-71
2021/12/31 09:27:07;;;;;;;2.58;1.60;;;14.90;96.80;;;;;;935346;151;27297;-70
2021/12/31 09:29:33;;;;;;;1.90;1.50;;;14.90;96.80;;;;;;939811;151;27302;-72
2021/12/31 09:32:00;;;;;;;2.23;1.70;;;14.90;96.80;;;;;;931837;151;27376;-71
2021/12/31 09:34:26;;;;;;;1.60;1.50;;;14.90;97.00;;;;;;930299;151;27317;-71
2021/12/31 09:36:53;;;;;;;1.50;1.40;;;14.90;97.20;;;;;;935693;149;27293;-72
2021/12/31 09:39:19;;;;;;;1.93;1.50;;;15.00;97.20;;;;;;935109;151;27832;-71
2021/12/31 09:41:46;;;;;;;2.03;1.77;;;15.00;97.10;;;;;;910761;153;28159;-72
2021/12/31 09:44:15;;;;;;;2.27;1.60;;;15.00;97.10;;;;;;935314;151;27733;-70
2021/12/31 09:46:42;;;;;;;1.80;1.70;;;15.10;97.10;;;;;;937946;151;27277;-71
2021/12/31 09:49:09;;;;;;;1.60;1.50;;;15.10;97.10;;;;;;934727;149;27362;-71
2021/12/31 09:51:35;;;;;;;1.77;1.35;;;15.20;97.00;;;;;;939770;151;27270;-71
2021/12/31 09:54:02;;;;;;;2.98;1.45;;;15.20;97.00;;;;;;931331;151;27809;-70
2021/12/31 09:56:28;;;;;;;2.40;1.50;;;15.30;97.00;;;;;;944436;149;27388;-71
2021/12/31 09:58:55;;;;;;;2.50;1.47;;;15.30;97.00;;;;;;947260;149;27742;-71
2021/12/31 10:01:24;;;;;;;1.60;1.50;;;15.40;97.00;;;;;;934875;150;27278;-71
2021/12/31 10:03:54;;;;;;;2.85;1.40;;;15.40;97.00;;;;;;932536;150;27427;-71
2021/12/31 10:06:20;;;;;;;1.92;1.50;;;15.50;97.20;;;;;;939264;150;27309;-72
2021/12/31 10:08:47;;;;;;;1.70;1.60;;;15.60;97.30;;;;;;944845;150;27260;-71
2021/12/31 10:11:20;;;;;;;0.98;0.98;;;15.70;97.30;;;;;;940453;149;27335;-71
2021/12/31 10:13:48;;;;;;;1.47;1.37;;;15.80;97.20;;;;;;938690;150;27264;-70
2021/12/31 10:16:26;;;;;;;1.30;1.20;;;15.90;97.10;;;;;;926120;152;27337;-71
2021/12/31 10:19:08;;;;;;;1.40;1.30;;;16.00;97.00;;;;;;936149;150;27291;-71
2021/12/31 10:21:34;;;;;;;1.50;1.40;;;16.10;96.90;;;;;;935700;150;27387;-71
2021/12/31 10:24:01;;;;;;;3.15;1.20;;;16.20;96.90;;;;;;939657;152;27781;-72
2021/12/31 10:26:27;;;;;;;1.60;1.50;;;16.30;96.70;;;;;;937030;149;27498;-71
2021/12/31 10:28:54;;;;;;;2.08;1.47;;;16.40;96.50;;;;;;939299;149;27252;-71
2021/12/31 10:31:20;;;;;;;1.60;1.50;;;16.50;96.20;;;;;;936924;149;27390;-70
2021/12/31 10:33:47;;;;;;;1.50;1.40;;;16.60;95.80;;;;;;944318;149;27303;-72
2021/12/31 10:36:32;;;;;;;1.30;1.20;;;16.70;95.50;;;;;;945119;149;27339;-71
2021/12/31 10:39:03;;;;;;;4.67;4.03;;;16.70;95.30;;;;;;930279;149;27447;-70
2021/12/31 10:41:28;;;;;;;4.42;3.80;;;16.80;95.00;;;;;;936455;149;27282;-71
2021/12/31 10:43:58;;;;;;;2.77;2.50;;;16.80;94.80;;;;;;944752;150;27852;-70
2021/12/31 10:46:24;;;;;;;1.82;1.72;;;16.90;94.70;;;;;;936872;150;27775;-70
2021/12/31 10:48:51;;;;;;;1.72;1.40;;;16.90;94.60;;;;;;943539;150;27248;-70
2021/12/31 10:51:17;;;;;;;3.67;1.30;;;17.00;94.40;;;;;;930823;151;27821;-70
2021/12/31 10:53:52;;;;;;;2.00;1.12;;;17.00;94.30;;;;;;938318;150;27337;-70
2021/12/31 10:56:13;;;;;;;1.57;1.40;;;17.00;94.20;;;;;;918633;154;27412;-69
2021/12/31 10:58:43;;;;;;;2.65;1.25;;;17.10;94.10;;;;;;938417;151;27359;-70
2021/12/31 11:01:12;;;;;;;7.90;2.70;;;17.10;94.00;;;;;;939881;150;27295;-73
2021/12/31 11:03:39;;;;;;;8.83;2.75;;;17.20;93.80;;;;;;929158;149;27315;-71
2021/12/31 11:06:07;;;;;;;6.33;3.05;;;17.20;93.60;;;;;;944042;150;27337;-71
2021/12/31 11:08:32;;;;;;;8.90;2.92;;;17.30;93.50;;;;;;946812;148;27298;-71
2021/12/31 11:10:58;;;;;;;2.65;1.92;;;17.30;93.40;;;;;;931364;150;27832;-71
2021/12/31 11:13:30;;;;;;;3.83;2.08;;;17.40;93.30;;;;;;937962;150;27363;-71
2021/12/31 11:15:55;;;;;;;7.65;2.40;;;17.40;93.50;;;;;;939454;150;27339;-71
2021/12/31 11:18:23;;;;;;;3.50;2.58;;;17.50;93.00;;;;;;944587;150;27357;-71
2021/12/31 11:20:48;;;;;;;4.65;1.72;;;17.50;93.00;;;;;;950199;150;27280;-71
2021/12/31 11:23:14;;;;;;;3.35;1.62;;;17.60;92.90;;;;;;950979;150;27308;-71
2021/12/31 11:25:50;;;;;;;8.08;3.42;;;17.60;92.80;;;;;;944872;150;27333;-70
2021/12/31 11:28:16;;;;;;;7.35;2.98;;;17.70;92.60;;;;;;920859;151;27957;-71
2021/12/31 11:30:43;;;;;;;5.85;2.40;;;17.70;92.30;;;;;;913962;152;27701;-71
2021/12/31 11:33:14;;;;;;;8.20;2.27;;;17.80;92.10;;;;;;937474;150;27352;-71
2021/12/31 11:35:57;;;;;;;3.40;2.15;;;17.80;91.90;;;;;;939215;150;27374;-74
2021/12/31 11:38:23;;;;;;;3.37;1.45;;;17.80;91.70;;;;;;938774;150;27333;-72
2021/12/31 11:40:52;;;;;;;3.87;1.75;;;17.90;91.60;;;;;;939589;150;27402;-71
2021/12/31 11:43:24;;;;;;;14.68;4.42;;;17.90;91.40;;;;;;930484;151;27360;-70
2021/12/31 11:46:12;;;;;;;7.50;2.85;;;17.90;91.20;;;;;;938559;150;27320;-71
2021/12/31 11:48:48;;;;;;;5.50;2.40;;;17.90;91.10;;;;;;939877;150;27415;-72
2021/12/31 11:53:58;;;;;;;4.67;1.90;;;17.90;90.90;;;;;;965924;145;37103;-70
2021/12/31 11:56:36;;;;;;;7.37;2.20;;;17.90;90.40;;;;;;955923;148;27440;-72
2021/12/31 11:59:12;;;;;;;2.90;1.82;;;17.80;90.30;;;;;;952875;149;27342;-71
2021/12/31 12:01:43;;;;;;;2.83;1.37;;;17.80;90.20;;;;;;948701;148;27454;-71
2021/12/31 12:04:27;;;;;;;4.95;1.70;;;17.80;90.20;;;;;;946295;149;27284;-72
2021/12/31 12:07:02;;;;;;;2.12;1.62;;;17.80;90.30;;;;;;922138;154;27322;-71
2021/12/31 12:09:37;;;;;;;2.00;1.55;;;17.80;90.40;;;;;;955182;149;27330;-71
2021/12/31 12:12:19;;;;;;;2.92;1.80;;;17.90;90.40;;;;;;955727;149;27348;-71
2021/12/31 12:14:45;;;;;;;3.67;1.92;;;17.90;90.40;;;;;;948960;148;27364;-74
2021/12/31 12:17:17;;;;;;;1.50;1.25;;;17.90;90.30;;;;;;940510;148;27357;-71
2021/12/31 12:19:49;;;;;;;0.90;0.90;;;17.90;90.10;;;;;;936266;151;27345;-71
2021/12/31 12:22:34;;;;;;;1.65;1.47;;;18.00;89.80;;;;;;940000;152;27351;-71
2021/12/31 12:25:00;;;;;;;3.80;1.47;;;18.00;89.50;;;;;;935188;152;27472;-70
2021/12/31 12:27:27;;;;;;;1.32;1.22;;;18.00;89.20;;;;;;944926;149;27347;-71
2021/12/31 12:29:53;;;;;;;2.47;1.67;;;18.00;88.70;;;;;;944106;149;27319;-71
2021/12/31 12:32:32;;;;;;;1.42;0.90;;;18.00;88.30;;;;;;939908;149;27419;-71
2021/12/31 12:34:46;;;;;;;1.15;1.10;;;18.00;88.20;;;;;;940726;149;27244;-71
2021/12/31 12:37:13;;;;;;;1.62;1.52;;;18.00;88.10;;;;;;947817;149;27325;-71
2021/12/31 12:39:40;;;;;;;1.80;1.50;;;18.00;87.80;;;;;;941110;152;27403;-70
2021/12/31 12:42:07;;;;;;;1.17;1.05;;;17.90;87.80;;;;;;943876;150;27278;-70
2021/12/31 12:44:33;;;;;;;1.60;1.37;;;17.90;87.80;;;;;;938128;150;27449;-71
2021/12/31 12:47:00;;;;;;;1.87;1.35;;;18.00;87.80;;;;;;946108;148;27407;-70
2021/12/31 12:49:29;;;;;;;1.82;1.20;;;17.90;87.90;;;;;;940376;151;27696;-71
2021/12/31 12:51:56;;;;;;;1.30;1.20;;;18.00;87.80;;;;;;941239;149;27364;-71